Time;durP1;ratioP1;P1;durP2;ratioP2;P2;SDS_P1;SDS_P2;PMS_P1;PMS_P2;Temp;Humidity;BMP_temperature;BMP_pressure;BME280_temperature;BME280_humidity;BME280_pressure;Samples;Min_cycle;Max_cycle;Signal;HPM_P1;HPM_P2
2023/07/19 00:02:10;;;;;;;18.52;10.38;;;14.60;99.90;;;;;;5050129;28;20029;-72
2023/07/19 00:04:36;;;;;;;22.35;10.00;;;14.50;99.90;;;;;;5050294;28;20416;-73
2023/07/19 00:07:02;;;;;;;20.25;11.55;;;14.60;99.90;;;;;;5049748;28;20401;-76
2023/07/19 00:09:27;;;;;;;30.90;14.70;;;14.60;99.90;;;;;;5050470;28;20021;-72
2023/07/19 00:11:53;;;;;;;18.48;11.80;;;14.60;99.90;;;;;;5050394;28;20035;-72
2023/07/19 00:14:19;;;;;;;28.30;13.70;;;14.60;99.90;;;;;;5049656;28;20028;-72
2023/07/19 00:16:45;;;;;;;27.17;14.63;;;14.60;99.90;;;;;;5050462;28;20163;-72
2023/07/19 00:19:10;;;;;;;28.45;14.93;;;14.50;99.90;;;;;;5049587;28;20044;-72
2023/07/19 00:21:36;;;;;;;31.42;13.95;;;14.50;99.90;;;;;;5050314;28;20047;-72
2023/07/19 00:24:02;;;;;;;43.58;15.82;;;14.50;99.90;;;;;;5049674;28;20447;-75
2023/07/19 00:26:28;;;;;;;28.33;14.10;;;14.50;99.90;;;;;;5050218;28;20116;-72
2023/07/19 00:28:53;;;;;;;32.25;14.18;;;14.40;99.90;;;;;;5049740;28;20437;-72
2023/07/19 00:31:19;;;;;;;31.27;14.30;;;14.50;99.90;;;;;;5049360;28;20035;-72
2023/07/19 00:33:45;;;;;;;29.33;14.45;;;14.50;99.90;;;;;;5049148;28;20071;-73
2023/07/19 00:36:11;;;;;;;25.85;13.32;;;14.60;99.90;;;;;;5049269;28;20057;-72
2023/07/19 00:38:38;;;;;;;27.48;13.70;;;14.50;99.90;;;;;;5049778;28;20052;-71
2023/07/19 00:41:03;;;;;;;23.63;12.45;;;14.50;99.90;;;;;;5049830;28;20041;-75
2023/07/19 00:43:29;;;;;;;26.95;13.25;;;14.40;99.90;;;;;;5050133;28;20055;-72
2023/07/19 00:45:55;;;;;;;36.00;15.13;;;14.50;99.90;;;;;;5049862;28;20032;-72
2023/07/19 00:48:21;;;;;;;35.17;15.43;;;14.50;99.90;;;;;;5049529;28;20332;-73
2023/07/19 00:50:52;;;;;;;32.47;15.35;;;14.40;99.90;;;;;;5050664;28;20385;-72
2023/07/19 00:53:19;;;;;;;32.97;15.20;;;14.50;99.90;;;;;;5049527;28;20117;-73
2023/07/19 00:55:49;;;;;;;34.60;15.10;;;14.50;99.90;;;;;;5050212;28;20041;-72
2023/07/19 00:58:15;;;;;;;27.42;13.80;;;14.40;99.90;;;;;;5049588;28;20025;-73
2023/07/19 01:00:41;;;;;;;27.88;14.20;;;14.50;99.90;;;;;;5049992;28;20021;-73
2023/07/19 01:03:07;;;;;;;33.30;14.65;;;14.40;99.90;;;;;;5049916;28;20029;-72
2023/07/19 01:05:33;;;;;;;33.47;14.15;;;14.40;99.90;;;;;;5050835;28;20466;-72
2023/07/19 01:07:59;;;;;;;33.78;15.20;;;14.30;99.90;;;;;;5053499;28;20055;-72
2023/07/19 01:10:26;;;;;;;36.30;15.55;;;14.30;99.90;;;;;;5053019;28;20156;-72
2023/07/19 01:13:05;;;;;;;40.97;17.25;;;14.30;99.90;;;;;;5053915;28;20040;-72
2023/07/19 01:15:31;;;;;;;37.97;17.10;;;14.30;99.90;;;;;;5053559;28;20438;-72
2023/07/19 01:17:57;;;;;;;35.95;16.50;;;14.30;99.90;;;;;;5053581;28;20022;-72
2023/07/19 01:20:22;;;;;;;41.47;16.88;;;14.30;99.90;;;;;;5052652;28;20462;-72
2023/07/19 01:22:48;;;;;;;44.42;17.80;;;14.40;99.90;;;;;;5053678;28;20035;-72
2023/07/19 01:25:14;;;;;;;34.72;15.13;;;14.30;99.90;;;;;;5053272;28;20064;-72
2023/07/19 01:27:42;;;;;;;46.90;17.92;;;14.30;99.90;;;;;;5053015;28;20464;-72
2023/07/19 01:30:09;;;;;;;40.45;18.17;;;14.30;99.90;;;;;;5052933;28;20036;-73
2023/07/19 01:32:34;;;;;;;53.00;20.77;;;14.20;99.90;;;;;;5053285;28;20435;-72
2023/07/19 01:35:00;;;;;;;56.47;20.80;;;14.20;99.90;;;;;;5052839;28;20076;-73
2023/07/19 01:37:28;;;;;;;55.15;22.20;;;14.20;99.90;;;;;;5050791;28;20036;-72
2023/07/19 01:39:55;;;;;;;58.08;21.10;;;14.20;99.90;;;;;;5053013;28;20120;-73
2023/07/19 01:42:21;;;;;;;71.78;21.85;;;14.20;99.90;;;;;;5052654;28;20107;-73
2023/07/19 01:44:46;;;;;;;61.08;20.45;;;14.20;99.90;;;;;;5053238;28;20402;-72
2023/07/19 01:47:12;;;;;;;50.47;18.63;;;14.10;99.90;;;;;;5052413;28;20130;-72
2023/07/19 01:49:39;;;;;;;58.92;20.80;;;14.10;99.90;;;;;;5052269;28;20077;-72
2023/07/19 01:52:06;;;;;;;42.80;17.70;;;14.10;99.90;;;;;;5052746;28;20033;-72
2023/07/19 01:54:31;;;;;;;62.13;20.38;;;14.10;99.90;;;;;;5052403;28;20036;-72
2023/07/19 01:56:58;;;;;;;60.00;20.33;;;14.10;99.90;;;;;;5052672;28;20382;-72
2023/07/19 01:59:23;;;;;;;54.45;21.13;;;14.00;99.90;;;;;;5052072;28;20043;-72
2023/07/19 02:01:49;;;;;;;45.22;19.05;;;14.00;99.90;;;;;;5052547;28;20025;-72
2023/07/19 02:04:15;;;;;;;45.67;19.13;;;14.00;99.90;;;;;;5050601;28;20025;-73
2023/07/19 02:06:41;;;;;;;52.33;19.27;;;14.10;99.90;;;;;;5052371;28;20039;-72
2023/07/19 02:09:06;;;;;;;36.53;17.73;;;14.10;99.90;;;;;;5052324;28;20029;-72
2023/07/19 02:11:34;;;;;;;54.72;20.92;;;14.10;99.90;;;;;;5051806;28;20017;-72
2023/07/19 02:14:00;;;;;;;45.65;19.17;;;14.20;99.90;;;;;;5052305;28;20021;-73
2023/07/19 02:16:25;;;;;;;41.15;20.10;;;14.10;99.90;;;;;;5051498;28;20389;-73
2023/07/19 02:18:51;;;;;;;33.95;17.17;;;14.10;99.90;;;;;;5052312;28;20116;-72
2023/07/19 02:21:17;;;;;;;32.75;17.85;;;14.20;99.90;;;;;;5051535;28;20029;-72
2023/07/19 02:23:43;;;;;;;25.13;15.75;;;14.10;99.90;;;;;;5051896;28;20037;-72
2023/07/19 02:26:09;;;;;;;31.08;17.63;;;14.10;99.90;;;;;;5051768;28;20028;-76
2023/07/19 02:28:35;;;;;;;31.08;16.50;;;14.10;99.90;;;;;;5052106;28;20110;-72
2023/07/19 02:31:02;;;;;;;22.38;14.25;;;14.10;99.90;;;;;;5052055;28;20124;-72
2023/07/19 02:33:28;;;;;;;24.23;15.20;;;14.10;99.90;;;;;;5051519;28;20033;-72
2023/07/19 02:35:54;;;;;;;24.42;14.63;;;14.10;99.90;;;;;;5051886;28;20033;-72
2023/07/19 02:38:24;;;;;;;21.25;13.25;;;14.10;99.90;;;;;;5051311;28;20107;-72
2023/07/19 02:40:50;;;;;;;19.52;13.43;;;14.10;99.90;;;;;;5051799;28;20182;-72
2023/07/19 02:43:16;;;;;;;18.33;13.48;;;14.10;99.90;;;;;;5050933;28;20104;-73
2023/07/19 02:45:42;;;;;;;14.43;11.40;;;14.00;99.90;;;;;;5051739;28;20036;-72
2023/07/19 02:48:07;;;;;;;17.52;11.55;;;14.00;99.90;;;;;;5051854;28;20021;-72
2023/07/19 02:50:33;;;;;;;17.77;11.15;;;14.00;99.90;;;;;;5051707;28;20162;-72
2023/07/19 02:52:59;;;;;;;12.38;8.98;;;14.10;99.90;;;;;;5051767;28;20094;-73
2023/07/19 02:55:25;;;;;;;7.75;6.95;;;14.10;99.90;;;;;;5051197;28;20032;-73
2023/07/19 02:57:50;;;;;;;11.38;8.23;;;14.10;99.90;;;;;;5052062;28;20028;-72
2023/07/19 03:00:16;;;;;;;7.40;6.50;;;14.00;99.90;;;;;;5051158;28;20044;-73
2023/07/19 03:02:42;;;;;;;6.72;5.60;;;14.10;99.90;;;;;;5051733;28;20328;-73
2023/07/19 03:05:08;;;;;;;6.20;5.50;;;14.00;99.90;;;;;;5051723;28;20032;-72
2023/07/19 03:07:33;;;;;;;8.07;6.53;;;14.00;99.90;;;;;;5051273;28;20487;-72
2023/07/19 03:09:59;;;;;;;6.38;5.78;;;14.00;99.90;;;;;;5051672;28;20040;-72
2023/07/19 03:12:25;;;;;;;8.75;5.75;;;14.00;99.90;;;;;;5050778;28;20025;-71
2023/07/19 03:14:51;;;;;;;7.38;5.43;;;14.00;99.90;;;;;;5051561;28;20032;-72
2023/07/19 03:17:17;;;;;;;6.40;5.78;;;14.00;99.90;;;;;;5050881;28;20029;-72
2023/07/19 03:19:46;;;;;;;7.68;4.68;;;14.00;99.90;;;;;;5051266;28;20057;-72
2023/07/19 03:22:11;;;;;;;7.63;5.15;;;13.90;99.90;;;;;;5051356;28;20055;-74
2023/07/19 03:24:37;;;;;;;5.65;5.05;;;14.00;99.90;;;;;;5050859;28;20063;-72
2023/07/19 03:27:03;;;;;;;5.22;4.70;;;14.00;99.90;;;;;;5051053;28;20478;-73
2023/07/19 03:29:29;;;;;;;7.25;5.38;;;14.00;99.90;;;;;;5050685;28;20033;-72
2023/07/19 03:31:54;;;;;;;8.40;5.78;;;14.00;99.90;;;;;;5051482;28;20025;-72
2023/07/19 03:34:20;;;;;;;11.77;6.10;;;14.00;99.90;;;;;;5050936;28;20526;-72
2023/07/19 03:36:46;;;;;;;7.32;5.07;;;13.90;99.90;;;;;;5051397;28;20048;-73
2023/07/19 03:39:12;;;;;;;8.07;4.93;;;13.90;99.90;;;;;;5051084;28;20028;-73
2023/07/19 03:41:38;;;;;;;8.23;6.32;;;13.90;99.90;;;;;;5050395;28;20021;-72
2023/07/19 03:44:03;;;;;;;8.10;5.50;;;14.00;99.90;;;;;;5050836;28;20437;-72
2023/07/19 03:46:29;;;;;;;11.07;5.75;;;13.90;99.90;;;;;;5050481;28;20079;-73
2023/07/19 03:48:55;;;;;;;6.70;5.50;;;13.90;99.90;;;;;;5051444;28;20070;-72
2023/07/19 03:51:20;;;;;;;8.95;5.07;;;13.90;99.90;;;;;;5049868;28;20509;-73
2023/07/19 03:53:46;;;;;;;5.78;4.53;;;13.80;99.90;;;;;;5050775;28;20032;-72
2023/07/19 03:56:12;;;;;;;7.40;6.07;;;13.90;99.90;;;;;;5050391;28;20370;-72
2023/07/19 03:58:39;;;;;;;8.85;4.57;;;13.90;99.90;;;;;;5049727;28;20036;-72
2023/07/19 04:01:05;;;;;;;6.38;4.90;;;13.80;99.90;;;;;;5050441;28;20032;-72
2023/07/19 04:03:31;;;;;;;5.53;4.65;;;13.80;99.90;;;;;;5049944;28;20470;-72
2023/07/19 04:05:58;;;;;;;4.95;4.30;;;13.80;99.90;;;;;;5050360;28;20029;-73
2023/07/19 04:08:25;;;;;;;7.20;4.80;;;13.80;99.90;;;;;;5049838;28;20017;-72
2023/07/19 04:10:50;;;;;;;5.70;4.30;;;13.90;99.90;;;;;;5050182;28;20021;-71
2023/07/19 04:13:16;;;;;;;7.30;5.70;;;13.90;99.90;;;;;;5049854;28;20029;-75
2023/07/19 04:15:43;;;;;;;7.20;4.68;;;13.90;99.90;;;;;;5048442;28;20442;-71
2023/07/19 04:18:09;;;;;;;10.23;5.43;;;13.90;99.90;;;;;;5050179;28;20109;-70
2023/07/19 04:20:36;;;;;;;11.45;5.57;;;13.90;99.90;;;;;;5049655;28;20032;-72
2023/07/19 04:23:03;;;;;;;8.02;5.47;;;13.80;99.90;;;;;;5049609;28;20390;-71
2023/07/19 04:25:30;;;;;;;8.40;5.25;;;13.80;99.90;;;;;;5049504;28;20029;-71
2023/07/19 04:27:56;;;;;;;10.68;5.60;;;13.90;99.90;;;;;;5049879;28;20068;-71
2023/07/19 04:30:22;;;;;;;7.45;4.65;;;13.90;99.90;;;;;;5049536;28;20098;-73
2023/07/19 04:32:48;;;;;;;8.00;5.63;;;13.90;99.90;;;;;;5049665;28;20339;-71
2023/07/19 04:35:14;;;;;;;8.82;6.30;;;13.90;99.90;;;;;;5050032;28;20037;-72
2023/07/19 04:37:41;;;;;;;9.05;5.55;;;13.90;99.90;;;;;;5049475;28;20029;-72
2023/07/19 04:40:10;;;;;;;7.00;5.90;;;13.90;99.90;;;;;;5050152;28;20501;-71
2023/07/19 04:42:36;;;;;;;9.48;5.45;;;13.90;99.90;;;;;;5053282;28;20116;-71
2023/07/19 04:45:02;;;;;;;6.88;5.28;;;13.90;99.90;;;;;;5053813;28;20104;-71
2023/07/19 04:47:29;;;;;;;10.20;4.80;;;13.90;99.90;;;;;;5053403;28;20033;-71
2023/07/19 04:49:54;;;;;;;6.43;5.22;;;13.90;99.90;;;;;;5054047;28;20155;-71
2023/07/19 04:52:20;;;;;;;5.82;5.28;;;13.90;99.90;;;;;;5053266;28;20563;-75
2023/07/19 04:54:48;;;;;;;11.07;5.68;;;13.90;99.90;;;;;;5053985;28;20029;-71
2023/07/19 04:57:14;;;;;;;10.85;5.47;;;13.90;99.90;;;;;;5053797;28;20020;-71
2023/07/19 04:59:40;;;;;;;8.10;5.90;;;13.90;99.90;;;;;;5053224;28;20024;-71
2023/07/19 05:02:07;;;;;;;9.90;6.22;;;14.00;99.90;;;;;;5053694;28;20025;-71
2023/07/19 05:04:33;;;;;;;6.63;4.70;;;14.00;99.90;;;;;;5053099;28;20119;-72
2023/07/19 05:06:59;;;;;;;9.77;5.78;;;14.00;99.90;;;;;;5053077;28;20390;-72
2023/07/19 05:09:25;;;;;;;7.65;5.55;;;14.00;99.90;;;;;;5052873;28;20032;-73
2023/07/19 05:11:51;;;;;;;10.52;6.05;;;14.00;99.90;;;;;;5053438;28;20036;-72
2023/07/19 05:14:17;;;;;;;6.65;5.22;;;14.00;99.90;;;;;;5052942;28;20116;-72
2023/07/19 05:16:43;;;;;;;6.70;5.25;;;13.90;99.90;;;;;;5052681;28;20431;-72
2023/07/19 05:19:09;;;;;;;6.20;4.30;;;14.00;99.90;;;;;;5053142;28;20032;-71
2023/07/19 05:21:35;;;;;;;5.57;4.95;;;14.00;99.90;;;;;;5052730;28;20034;-72
2023/07/19 05:24:01;;;;;;;7.60;5.07;;;14.10;99.90;;;;;;5053058;28;20029;-73
2023/07/19 05:26:27;;;;;;;6.90;5.10;;;14.10;99.90;;;;;;5052542;28;20454;-72
2023/07/19 05:28:52;;;;;;;8.18;5.03;;;14.10;99.90;;;;;;5052688;28;20124;-72
2023/07/19 05:31:19;;;;;;;8.20;5.20;;;14.20;99.90;;;;;;5052880;28;20024;-72
2023/07/19 05:33:45;;;;;;;5.82;4.38;;;14.20;99.90;;;;;;5050746;28;20029;-72
2023/07/19 05:36:11;;;;;;;8.18;5.40;;;14.30;99.90;;;;;;5053240;28;20029;-72
2023/07/19 05:38:36;;;;;;;7.20;4.68;;;14.30;99.90;;;;;;5052281;28;20029;-72
2023/07/19 05:41:03;;;;;;;5.43;4.85;;;14.40;99.90;;;;;;5051053;28;20029;-72
2023/07/19 05:43:31;;;;;;;7.65;4.63;;;14.40;99.90;;;;;;5052384;28;20040;-72
2023/07/19 05:46:07;;;;;;;9.60;4.65;;;14.50;99.90;;;;;;5053382;28;20051;-72
2023/07/19 05:48:33;;;;;;;6.65;5.10;;;14.50;99.90;;;;;;5052259;28;20481;-72
2023/07/19 05:51:00;;;;;;;9.25;5.70;;;14.50;99.90;;;;;;5052718;28;20115;-72
2023/07/19 05:53:26;;;;;;;6.28;5.05;;;14.50;99.90;;;;;;5052357;28;20116;-72
2023/07/19 05:55:52;;;;;;;7.53;4.65;;;14.50;99.90;;;;;;5053114;28;20477;-72
2023/07/19 05:58:19;;;;;;;6.70;5.30;;;14.50;99.90;;;;;;5052792;28;20036;-72
2023/07/19 06:00:44;;;;;;;9.70;5.00;;;14.50;99.90;;;;;;5052358;28;20494;-72
2023/07/19 06:03:10;;;;;;;13.23;4.88;;;14.60;99.90;;;;;;5052851;28;20033;-72
2023/07/19 06:05:38;;;;;;;11.75;5.10;;;14.50;99.90;;;;;;5052370;28;20529;-71
2023/07/19 06:08:04;;;;;;;6.75;4.47;;;14.60;99.90;;;;;;5052766;28;20029;-72
2023/07/19 06:10:30;;;;;;;8.77;4.60;;;14.60;99.90;;;;;;5052089;28;20036;-72
2023/07/19 06:12:56;;;;;;;4.70;4.18;;;14.60;99.90;;;;;;5052179;28;20102;-71
2023/07/19 06:15:21;;;;;;;6.40;4.55;;;14.60;99.90;;;;;;5051085;28;20124;-72
2023/07/19 06:17:47;;;;;;;8.45;4.07;;;14.70;99.90;;;;;;5051743;28;20021;-72
2023/07/19 06:20:15;;;;;;;7.18;6.10;;;14.80;99.90;;;;;;5052457;28;20025;-72
2023/07/19 06:22:41;;;;;;;8.25;4.75;;;14.80;99.90;;;;;;5051090;28;20347;-72
2023/07/19 06:25:07;;;;;;;6.20;4.40;;;15.00;99.90;;;;;;5052021;28;20025;-72
2023/07/19 06:27:33;;;;;;;6.53;5.15;;;14.90;99.90;;;;;;5050912;28;20059;-72
2023/07/19 06:29:59;;;;;;;6.97;4.68;;;15.10;99.90;;;;;;5051570;28;20115;-72
2023/07/19 06:32:25;;;;;;;5.93;4.97;;;15.10;99.90;;;;;;5051000;28;20080;-74
2023/07/19 06:34:51;;;;;;;6.28;4.72;;;15.30;99.90;;;;;;5051789;28;20040;-71
2023/07/19 06:37:17;;;;;;;7.85;4.13;;;15.40;99.90;;;;;;5050327;28;20378;-72
2023/07/19 06:39:42;;;;;;;5.57;4.32;;;15.40;99.90;;;;;;5051144;28;20324;-72
2023/07/19 06:42:08;;;;;;;8.85;4.75;;;15.40;99.90;;;;;;5051887;28;20536;-71
2023/07/19 06:44:35;;;;;;;4.80;3.97;;;15.50;99.90;;;;;;5051055;28;20032;-71
2023/07/19 06:47:01;;;;;;;7.35;4.30;;;15.50;99.90;;;;;;5051739;28;20359;-71
2023/07/19 06:49:27;;;;;;;5.88;4.78;;;15.50;99.90;;;;;;5051285;28;20043;-75
2023/07/19 06:51:52;;;;;;;8.50;4.53;;;15.50;99.90;;;;;;5050921;28;20435;-71
2023/07/19 06:54:18;;;;;;;10.60;4.20;;;15.50;99.90;;;;;;5051351;28;20028;-71
2023/07/19 06:56:44;;;;;;;5.63;4.05;;;15.40;99.90;;;;;;5050651;28;20434;-71
2023/07/19 06:59:10;;;;;;;9.57;4.43;;;15.50;99.90;;;;;;5051021;28;20040;-71
2023/07/19 07:01:35;;;;;;;6.65;4.93;;;15.50;99.90;;;;;;5051030;28;20025;-72
2023/07/19 07:04:01;;;;;;;6.30;4.72;;;15.50;99.90;;;;;;5050448;28;20035;-71
2023/07/19 07:06:27;;;;;;;6.40;3.90;;;15.50;99.90;;;;;;5050976;28;20488;-74
2023/07/19 07:08:53;;;;;;;7.63;4.05;;;15.60;99.90;;;;;;5051662;28;20021;-71
2023/07/19 07:11:19;;;;;;;5.72;4.38;;;15.70;99.90;;;;;;5051608;28;20467;-71
2023/07/19 07:13:45;;;;;;;7.03;4.70;;;15.80;99.90;;;;;;5050559;28;20039;-71
2023/07/19 07:16:12;;;;;;;5.65;4.25;;;16.00;99.90;;;;;;5049857;28;20039;-71
2023/07/19 07:18:39;;;;;;;6.90;4.70;;;16.10;99.90;;;;;;5049888;28;20385;-73
2023/07/19 07:21:04;;;;;;;6.55;4.28;;;16.20;99.90;;;;;;5051034;28;20071;-71
2023/07/19 07:23:30;;;;;;;6.22;4.40;;;16.20;99.90;;;;;;5050069;28;20035;-73
2023/07/19 07:25:56;;;;;;;4.80;4.30;;;16.30;99.90;;;;;;5050930;28;20021;-72
2023/07/19 07:28:22;;;;;;;6.72;3.83;;;16.40;99.90;;;;;;5050335;28;20049;-71
2023/07/19 07:30:48;;;;;;;8.27;4.50;;;16.40;99.90;;;;;;5050144;28;20560;-72
2023/07/19 07:33:14;;;;;;;5.85;4.30;;;16.50;99.90;;;;;;5050830;28;20052;-72
2023/07/19 07:35:39;;;;;;;5.47;3.80;;;16.70;99.90;;;;;;5049745;28;20077;-72
2023/07/19 07:38:05;;;;;;;7.90;4.03;;;16.90;99.90;;;;;;5049611;28;20383;-72
2023/07/19 07:40:31;;;;;;;6.65;3.33;;;16.90;99.90;;;;;;5050085;28;20047;-73
2023/07/19 07:42:56;;;;;;;6.18;3.28;;;16.90;99.90;;;;;;5050440;28;20043;-73
2023/07/19 07:45:22;;;;;;;5.97;3.50;;;17.00;99.90;;;;;;5050286;28;20358;-72
2023/07/19 07:47:48;;;;;;;6.70;3.15;;;17.20;99.90;;;;;;5049530;28;20031;-72
2023/07/19 07:50:14;;;;;;;6.57;3.10;;;17.30;99.90;;;;;;5050710;28;20023;-71
2023/07/19 07:52:40;;;;;;;6.82;3.40;;;17.40;99.90;;;;;;5049494;28;20543;-72
2023/07/19 07:55:06;;;;;;;5.70;2.85;;;17.50;99.90;;;;;;5050265;28;20037;-72
2023/07/19 07:57:37;;;;;;;6.82;3.25;;;17.40;99.90;;;;;;5049736;28;20018;-75
2023/07/19 08:00:10;;;;;;;5.57;2.97;;;17.50;99.90;;;;;;5050292;28;20048;-71
2023/07/19 08:02:36;;;;;;;3.85;2.97;;;17.30;99.90;;;;;;5049856;28;20037;-72
2023/07/19 08:05:03;;;;;;;4.25;3.35;;;17.30;99.90;;;;;;5050008;28;20032;-72
2023/07/19 08:07:29;;;;;;;4.32;2.60;;;17.40;99.90;;;;;;5050244;28;20115;-71
2023/07/19 08:09:55;;;;;;;4.40;2.58;;;17.40;99.90;;;;;;5049587;28;20104;-72
2023/07/19 08:12:21;;;;;;;4.50;2.78;;;17.50;99.90;;;;;;5050186;28;20400;-71
2023/07/19 08:14:47;;;;;;;5.38;3.00;;;17.40;99.90;;;;;;5049300;28;20037;-72
2023/07/19 08:17:12;;;;;;;3.15;2.80;;;17.20;99.90;;;;;;5050071;28;20132;-71
2023/07/19 08:19:38;;;;;;;4.78;2.33;;;17.30;99.90;;;;;;5049493;28;20025;-72
2023/07/19 08:22:05;;;;;;;3.40;2.13;;;17.50;99.90;;;;;;5050318;28;20033;-72
2023/07/19 08:24:31;;;;;;;3.58;2.50;;;17.60;99.90;;;;;;5049808;28;20040;-73
2023/07/19 08:26:57;;;;;;;2.63;2.10;;;17.80;99.90;;;;;;5049773;28;20163;-71
2023/07/19 08:29:26;;;;;;;4.60;2.25;;;18.00;99.90;;;;;;5049924;28;20061;-72
2023/07/19 08:31:51;;;;;;;3.13;2.00;;;18.10;99.90;;;;;;5049709;28;20151;-73
2023/07/19 08:34:18;;;;;;;4.45;2.38;;;18.00;99.90;;;;;;5049761;28;20441;-72
2023/07/19 08:36:45;;;;;;;3.50;2.35;;;18.10;99.90;;;;;;5049291;28;20438;-72
2023/07/19 08:39:11;;;;;;;4.22;2.25;;;18.20;99.90;;;;;;5049979;28;20051;-72
2023/07/19 08:41:37;;;;;;;8.35;2.30;;;18.30;99.90;;;;;;5049297;28;20029;-72
2023/07/19 08:44:04;;;;;;;4.55;2.30;;;18.40;99.90;;;;;;5047116;28;20031;-73
2023/07/19 08:46:32;;;;;;;3.90;1.98;;;18.50;99.90;;;;;;5049367;28;20057;-72
2023/07/19 08:48:59;;;;;;;3.10;2.13;;;18.50;99.90;;;;;;5049565;28;20021;-72
2023/07/19 08:51:26;;;;;;;2.55;2.08;;;18.30;99.90;;;;;;5049564;28;20374;-72
2023/07/19 08:53:52;;;;;;;6.28;2.20;;;18.50;99.90;;;;;;5048296;28;20108;-72
2023/07/19 08:56:20;;;;;;;4.70;2.08;;;18.60;99.90;;;;;;5049618;28;20040;-72
2023/07/19 08:58:46;;;;;;;2.28;2.08;;;18.60;99.90;;;;;;5048380;28;20052;-72
2023/07/19 09:01:12;;;;;;;6.55;2.30;;;18.50;99.90;;;;;;5049656;28;20064;-72
2023/07/19 09:03:37;;;;;;;3.53;1.92;;;18.30;99.90;;;;;;5048872;28;20040;-72
2023/07/19 09:06:21;;;;;;;4.15;2.03;;;18.30;99.90;;;;;;5049488;28;20071;-72
2023/07/19 09:08:47;;;;;;;2.35;1.90;;;18.40;99.90;;;;;;5049089;28;20447;-72
2023/07/19 09:11:20;;;;;;;2.45;1.88;;;18.50;99.90;;;;;;5048848;28;20081;-72
2023/07/19 09:13:54;;;;;;;4.50;2.55;;;18.60;99.90;;;;;;5049263;28;20048;-72
2023/07/19 09:16:31;;;;;;;2.72;1.90;;;18.60;99.90;;;;;;5049460;28;20037;-72
2023/07/19 09:18:58;;;;;;;3.80;1.90;;;18.80;99.90;;;;;;5048940;28;20105;-72
2023/07/19 09:21:42;;;;;;;3.60;1.80;;;18.80;99.90;;;;;;5049766;28;20021;-72
2023/07/19 09:24:09;;;;;;;3.35;1.95;;;18.70;99.90;;;;;;5049634;28;20098;-72
2023/07/19 09:26:56;;;;;;;3.83;2.15;;;18.70;99.90;;;;;;5050695;28;20021;-72
2023/07/19 09:29:23;;;;;;;4.57;2.00;;;18.70;99.90;;;;;;5052626;28;20558;-72
2023/07/19 09:31:57;;;;;;;3.35;1.92;;;18.80;99.90;;;;;;5052535;28;20085;-72
2023/07/19 09:34:27;;;;;;;3.63;2.10;;;18.80;99.90;;;;;;5053032;28;20033;-72
2023/07/19 09:36:53;;;;;;;3.30;1.95;;;18.90;99.90;;;;;;5052108;28;20430;-71
2023/07/19 09:39:20;;;;;;;3.10;1.90;;;19.10;99.90;;;;;;5053039;28;20078;-72
2023/07/19 09:41:46;;;;;;;2.10;1.83;;;19.30;99.90;;;;;;5052310;28;20103;-73
2023/07/19 09:44:15;;;;;;;2.15;1.95;;;19.40;99.90;;;;;;5053150;28;20036;-72
2023/07/19 09:46:42;;;;;;;2.70;1.80;;;19.50;99.90;;;;;;5052075;28;20033;-73
2023/07/19 09:49:08;;;;;;;2.65;1.60;;;19.50;99.90;;;;;;5053065;28;20032;-72
2023/07/19 09:51:35;;;;;;;2.55;1.83;;;19.50;99.90;;;;;;5052628;28;20467;-72
2023/07/19 09:54:08;;;;;;;2.38;1.52;;;19.50;99.90;;;;;;5052573;28;20059;-72
2023/07/19 09:56:33;;;;;;;3.22;1.42;;;19.40;99.90;;;;;;5052931;28;20038;-73
2023/07/19 09:59:00;;;;;;;2.97;1.80;;;19.10;99.90;;;;;;5052201;28;20064;-72
2023/07/19 10:01:26;;;;;;;2.53;1.48;;;19.00;99.90;;;;;;5052467;28;20075;-72
2023/07/19 10:03:52;;;;;;;2.17;1.80;;;19.00;99.90;;;;;;5052158;28;20052;-72
2023/07/19 10:06:18;;;;;;;2.72;1.52;;;19.30;99.90;;;;;;5052578;28;20381;-72
2023/07/19 10:08:44;;;;;;;3.20;1.80;;;19.50;99.90;;;;;;5051837;28;20451;-72
2023/07/19 10:11:21;;;;;;;2.40;1.38;;;19.50;99.90;;;;;;5052518;28;20096;-73
2023/07/19 10:13:56;;;;;;;3.35;1.58;;;19.50;99.90;;;;;;5051985;28;20037;-72
2023/07/19 10:16:34;;;;;;;1.88;1.33;;;19.40;99.90;;;;;;5052179;28;20041;-72
2023/07/19 10:19:13;;;;;;;3.40;1.58;;;19.20;99.90;;;;;;5051974;28;20074;-73
2023/07/19 10:21:43;;;;;;;2.67;1.60;;;19.10;99.90;;;;;;5052222;28;20025;-75
2023/07/19 10:24:09;;;;;;;2.50;1.40;;;19.10;99.90;;;;;;5052692;28;20032;-72
2023/07/19 10:26:36;;;;;;;2.80;1.80;;;18.90;99.90;;;;;;5052220;28;20035;-73
2023/07/19 10:29:04;;;;;;;3.90;1.88;;;18.70;99.90;;;;;;5051623;28;20132;-73
2023/07/19 10:31:31;;;;;;;2.97;1.60;;;18.70;99.90;;;;;;5051730;28;20109;-73
2023/07/19 10:33:57;;;;;;;2.70;1.85;;;18.60;99.90;;;;;;5051154;28;20037;-73
2023/07/19 10:36:23;;;;;;;2.85;2.15;;;18.50;99.90;;;;;;5051582;28;20100;-74
2023/07/19 10:38:49;;;;;;;4.75;1.77;;;18.50;99.90;;;;;;5051922;28;20027;-73
2023/07/19 10:41:17;;;;;;;3.95;1.50;;;18.60;99.90;;;;;;5051434;28;20455;-73
2023/07/19 10:43:42;;;;;;;3.95;1.60;;;18.70;99.90;;;;;;5051582;28;20107;-73
2023/07/19 10:46:08;;;;;;;3.00;1.73;;;18.80;99.90;;;;;;5051805;28;20118;-73
2023/07/19 10:48:36;;;;;;;2.45;1.70;;;18.80;99.90;;;;;;5050451;28;20087;-72
2023/07/19 10:51:05;;;;;;;1.92;1.70;;;18.90;99.90;;;;;;5051400;28;20021;-72
2023/07/19 10:53:45;;;;;;;2.60;2.35;;;19.00;99.90;;;;;;5051374;28;20437;-73
2023/07/19 10:56:13;;;;;;;4.97;1.67;;;19.10;99.90;;;;;;5051753;28;20052;-73
2023/07/19 10:58:39;;;;;;;2.90;1.58;;;19.20;99.90;;;;;;5051516;28;20025;-73
2023/07/19 11:01:06;;;;;;;1.88;1.48;;;19.30;99.90;;;;;;5050782;28;20074;-73
2023/07/19 11:03:32;;;;;;;2.88;1.77;;;19.50;99.90;;;;;;5051637;28;20041;-73
2023/07/19 11:05:59;;;;;;;2.47;1.60;;;19.60;99.90;;;;;;5050919;28;20018;-72
2023/07/19 11:08:26;;;;;;;4.53;1.90;;;19.70;99.90;;;;;;5051064;28;20470;-72
2023/07/19 11:10:54;;;;;;;4.88;1.85;;;19.70;99.90;;;;;;5051006;28;20025;-73
2023/07/19 11:13:25;;;;;;;2.45;1.70;;;19.60;99.90;;;;;;5051343;28;20439;-73
2023/07/19 11:15:55;;;;;;;2.22;1.40;;;19.50;99.90;;;;;;5049413;28;20332;-72
2023/07/19 11:18:27;;;;;;;2.08;1.60;;;19.30;99.90;;;;;;5051037;28;20462;-72
2023/07/19 11:20:59;;;;;;;2.83;2.00;;;19.10;99.90;;;;;;5050762;28;20450;-72
2023/07/19 11:23:25;;;;;;;;;;;19.00;99.90;;;;;;5051247;28;20032;-72
2023/07/19 11:26:01;;;;;;;1.80;1.58;;;18.80;99.90;;;;;;5049703;28;19911;-72
2023/07/19 11:28:36;;;;;;;2.20;1.63;;;18.60;99.90;;;;;;5049775;28;20059;-73
2023/07/19 11:31:03;;;;;;;2.22;1.85;;;18.50;99.90;;;;;;5049838;28;20033;-73
2023/07/19 11:33:29;;;;;;;3.58;2.35;;;18.30;99.90;;;;;;5050590;28;20131;-73
2023/07/19 11:35:56;;;;;;;3.58;2.13;;;18.20;99.90;;;;;;5049780;28;20049;-73
2023/07/19 11:38:22;;;;;;;3.03;2.03;;;18.20;99.90;;;;;;5050531;28;20393;-73
2023/07/19 11:40:48;;;;;;;1.73;1.58;;;18.20;99.90;;;;;;5050149;28;20075;-73
2023/07/19 11:43:14;;;;;;;3.22;1.98;;;18.30;99.90;;;;;;5050617;28;20033;-73
2023/07/19 11:45:39;;;;;;;3.15;1.80;;;18.30;99.90;;;;;;5050451;28;20033;-73
2023/07/19 11:48:05;;;;;;;3.30;1.80;;;18.40;99.90;;;;;;5049760;28;20048;-75
2023/07/19 11:50:32;;;;;;;3.75;1.80;;;18.50;99.90;;;;;;5049823;28;20048;-73
2023/07/19 11:53:01;;;;;;;3.85;2.15;;;18.60;99.90;;;;;;5050002;28;20039;-73
2023/07/19 11:55:29;;;;;;;2.33;1.63;;;18.80;99.90;;;;;;5050371;28;20032;-73
2023/07/19 11:58:02;;;;;;;6.60;1.90;;;19.00;99.90;;;;;;5049743;28;20032;-72
2023/07/19 12:00:29;;;;;;;3.47;2.00;;;19.00;99.90;;;;;;5050617;28;20029;-72
2023/07/19 12:02:56;;;;;;;4.15;2.00;;;19.10;99.90;;;;;;5050000;28;20459;-73
2023/07/19 12:05:24;;;;;;;3.20;1.90;;;19.10;99.90;;;;;;5050601;28;20032;-73
2023/07/19 12:07:52;;;;;;;1.67;1.55;;;19.20;99.90;;;;;;5049706;28;20111;-73
2023/07/19 12:10:19;;;;;;;3.30;1.70;;;19.20;99.90;;;;;;5050411;28;20062;-73
2023/07/19 12:12:48;;;;;;;2.20;1.85;;;19.20;99.90;;;;;;5050202;28;20031;-75
2023/07/19 12:15:15;;;;;;;2.15;1.95;;;19.10;99.90;;;;;;5050525;28;20036;-73
2023/07/19 12:17:41;;;;;;;4.78;1.95;;;19.00;99.90;;;;;;5050486;28;20036;-73
2023/07/19 12:20:09;;;;;;;2.13;1.92;;;19.00;99.90;;;;;;5049539;28;20024;-73
2023/07/19 12:22:36;;;;;;;2.25;1.90;;;18.90;99.90;;;;;;5050308;28;20025;-73
2023/07/19 12:25:03;;;;;;;4.40;2.03;;;18.90;99.90;;;;;;5050153;28;20026;-72
2023/07/19 12:27:30;;;;;;;1.85;1.60;;;18.90;99.90;;;;;;5050135;28;20049;-73
2023/07/19 12:29:58;;;;;;;3.33;1.90;;;18.90;99.90;;;;;;5049534;28;20060;-72
2023/07/19 12:32:25;;;;;;;3.70;1.77;;;18.90;99.90;;;;;;5050442;28;20021;-73
2023/07/19 12:34:51;;;;;;;3.03;1.60;;;18.90;99.90;;;;;;5049271;28;20084;-73
2023/07/19 12:37:17;;;;;;;3.50;2.00;;;18.90;99.90;;;;;;5050334;28;20068;-72
2023/07/19 12:39:43;;;;;;;4.25;2.10;;;18.90;99.90;;;;;;5048609;28;20083;-72
2023/07/19 12:42:10;;;;;;;4.18;1.90;;;19.00;99.90;;;;;;5049401;28;20025;-72